sensor_id;sensor_type;location;lat;lon;timestamp;P1;durP1;ratioP1;P2;durP2;ratioP2
30173;SDS011;16985;50.814;8.530;2023-07-30T00:02:19;5.72;;;2.13;;
30173;SDS011;16985;50.814;8.530;2023-07-30T00:04:46;2.60;;;2.40;;
30173;SDS011;16985;50.814;8.530;2023-07-30T00:07:12;6.75;;;2.17;;
30173;SDS011;16985;50.814;8.530;2023-07-30T00:09:38;2.45;;;2.20;;
30173;SDS011;16985;50.814;8.530;2023-07-30T00:12:05;3.85;;;2.60;;
30173;SDS011;16985;50.814;8.530;2023-07-30T00:14:33;3.00;;;2.10;;
30173;SDS011;16985;50.814;8.530;2023-07-30T00:16:59;3.35;;;2.50;;
30173;SDS011;16985;50.814;8.530;2023-07-30T00:19:25;4.93;;;2.50;;
30173;SDS011;16985;50.814;8.530;2023-07-30T00:21:51;7.35;;;2.25;;
30173;SDS011;16985;50.814;8.530;2023-07-30T00:24:17;2.63;;;2.00;;
30173;SDS011;16985;50.814;8.530;2023-07-30T00:26:43;6.05;;;2.80;;
30173;SDS011;16985;50.814;8.530;2023-07-30T00:29:09;4.13;;;2.65;;
30173;SDS011;16985;50.814;8.530;2023-07-30T00:31:36;4.60;;;2.90;;
30173;SDS011;16985;50.814;8.530;2023-07-30T00:34:01;7.10;;;2.42;;
30173;SDS011;16985;50.814;8.530;2023-07-30T00:36:27;5.28;;;3.00;;
30173;SDS011;16985;50.814;8.530;2023-07-30T00:38:53;7.07;;;3.75;;
30173;SDS011;16985;50.814;8.530;2023-07-30T00:41:19;5.15;;;3.35;;
30173;SDS011;16985;50.814;8.530;2023-07-30T00:43:45;9.20;;;3.90;;
30173;SDS011;16985;50.814;8.530;2023-07-30T00:46:11;5.82;;;4.20;;
30173;SDS011;16985;50.814;8.530;2023-07-30T00:48:38;8.70;;;4.25;;
30173;SDS011;16985;50.814;8.530;2023-07-30T00:51:04;4.15;;;3.33;;
30173;SDS011;16985;50.814;8.530;2023-07-30T00:53:30;4.55;;;3.72;;
30173;SDS011;16985;50.814;8.530;2023-07-30T00:55:56;5.72;;;3.33;;
30173;SDS011;16985;50.814;8.530;2023-07-30T00:58:22;5.53;;;3.40;;
30173;SDS011;16985;50.814;8.530;2023-07-30T01:00:49;3.58;;;3.15;;
30173;SDS011;16985;50.814;8.530;2023-07-30T01:03:17;4.28;;;3.03;;
30173;SDS011;16985;50.814;8.530;2023-07-30T01:05:43;5.18;;;3.28;;
30173;SDS011;16985;50.814;8.530;2023-07-30T01:08:11;4.20;;;3.60;;
30173;SDS011;16985;50.814;8.530;2023-07-30T01:10:37;3.63;;;3.05;;
30173;SDS011;16985;50.814;8.530;2023-07-30T01:13:05;3.65;;;3.25;;
30173;SDS011;16985;50.814;8.530;2023-07-30T01:15:33;4.75;;;4.15;;
30173;SDS011;16985;50.814;8.530;2023-07-30T01:17:59;6.43;;;3.28;;
30173;SDS011;16985;50.814;8.530;2023-07-30T01:20:29;2.95;;;2.65;;
30173;SDS011;16985;50.814;8.530;2023-07-30T01:22:57;5.00;;;3.15;;
30173;SDS011;16985;50.814;8.530;2023-07-30T01:25:30;4.72;;;3.58;;
30173;SDS011;16985;50.814;8.530;2023-07-30T01:28:01;5.50;;;3.10;;
30173;SDS011;16985;50.814;8.530;2023-07-30T01:30:42;4.32;;;2.97;;
30173;SDS011;16985;50.814;8.530;2023-07-30T01:33:10;3.63;;;3.28;;
30173;SDS011;16985;50.814;8.530;2023-07-30T01:35:36;7.75;;;2.90;;
30173;SDS011;16985;50.814;8.530;2023-07-30T01:38:03;3.65;;;2.97;;
30173;SDS011;16985;50.814;8.530;2023-07-30T01:40:31;4.90;;;3.22;;
30173;SDS011;16985;50.814;8.530;2023-07-30T01:42:58;3.40;;;3.10;;
30173;SDS011;16985;50.814;8.530;2023-07-30T01:45:24;5.80;;;3.00;;
30173;SDS011;16985;50.814;8.530;2023-07-30T01:47:49;8.15;;;3.22;;
30173;SDS011;16985;50.814;8.530;2023-07-30T01:50:15;6.07;;;2.90;;
30173;SDS011;16985;50.814;8.530;2023-07-30T01:52:41;3.22;;;2.92;;
30173;SDS011;16985;50.814;8.530;2023-07-30T01:55:07;7.78;;;3.80;;
30173;SDS011;16985;50.814;8.530;2023-07-30T01:57:33;14.18;;;4.72;;
30173;SDS011;16985;50.814;8.530;2023-07-30T01:59:59;7.50;;;4.63;;
30173;SDS011;16985;50.814;8.530;2023-07-30T02:02:25;6.03;;;4.22;;
30173;SDS011;16985;50.814;8.530;2023-07-30T02:04:51;5.00;;;3.83;;
30173;SDS011;16985;50.814;8.530;2023-07-30T02:07:16;9.45;;;4.32;;
30173;SDS011;16985;50.814;8.530;2023-07-30T02:09:43;8.43;;;4.40;;
30173;SDS011;16985;50.814;8.530;2023-07-30T02:12:08;6.82;;;4.13;;
30173;SDS011;16985;50.814;8.530;2023-07-30T02:14:34;4.60;;;4.15;;
30173;SDS011;16985;50.814;8.530;2023-07-30T02:17:00;6.45;;;4.20;;
30173;SDS011;16985;50.814;8.530;2023-07-30T02:19:26;11.05;;;5.25;;
30173;SDS011;16985;50.814;8.530;2023-07-30T02:21:52;6.45;;;4.97;;
30173;SDS011;16985;50.814;8.530;2023-07-30T02:24:18;7.35;;;4.45;;
30173;SDS011;16985;50.814;8.530;2023-07-30T02:26:44;6.00;;;4.93;;
30173;SDS011;16985;50.814;8.530;2023-07-30T02:29:09;5.22;;;4.72;;
30173;SDS011;16985;50.814;8.530;2023-07-30T02:31:35;5.57;;;4.63;;
30173;SDS011;16985;50.814;8.530;2023-07-30T02:34:01;7.97;;;4.82;;
30173;SDS011;16985;50.814;8.530;2023-07-30T02:36:27;7.35;;;5.38;;
30173;SDS011;16985;50.814;8.530;2023-07-30T02:38:52;10.60;;;4.85;;
30173;SDS011;16985;50.814;8.530;2023-07-30T02:41:18;8.73;;;4.68;;
30173;SDS011;16985;50.814;8.530;2023-07-30T02:43:44;8.13;;;4.38;;
30173;SDS011;16985;50.814;8.530;2023-07-30T02:46:10;7.22;;;4.40;;
30173;SDS011;16985;50.814;8.530;2023-07-30T02:48:37;4.85;;;4.28;;
30173;SDS011;16985;50.814;8.530;2023-07-30T02:51:02;6.07;;;3.70;;
30173;SDS011;16985;50.814;8.530;2023-07-30T02:53:28;7.20;;;4.43;;
30173;SDS011;16985;50.814;8.530;2023-07-30T02:55:54;8.23;;;3.95;;
30173;SDS011;16985;50.814;8.530;2023-07-30T02:58:20;6.25;;;4.05;;
30173;SDS011;16985;50.814;8.530;2023-07-30T03:00:46;6.28;;;3.60;;
30173;SDS011;16985;50.814;8.530;2023-07-30T03:03:12;5.78;;;3.50;;
30173;SDS011;16985;50.814;8.530;2023-07-30T03:05:41;13.43;;;3.88;;
30173;SDS011;16985;50.814;8.530;2023-07-30T03:08:07;5.22;;;3.35;;
30173;SDS011;16985;50.814;8.530;2023-07-30T03:10:33;6.15;;;3.35;;
30173;SDS011;16985;50.814;8.530;2023-07-30T03:13:01;7.63;;;3.17;;
30173;SDS011;16985;50.814;8.530;2023-07-30T03:15:27;5.15;;;3.17;;
30173;SDS011;16985;50.814;8.530;2023-07-30T03:17:53;4.00;;;3.60;;
30173;SDS011;16985;50.814;8.530;2023-07-30T03:20:19;4.38;;;2.95;;
30173;SDS011;16985;50.814;8.530;2023-07-30T03:22:45;5.72;;;2.95;;
30173;SDS011;16985;50.814;8.530;2023-07-30T03:25:10;5.53;;;3.40;;
30173;SDS011;16985;50.814;8.530;2023-07-30T03:27:36;8.45;;;3.63;;
30173;SDS011;16985;50.814;8.530;2023-07-30T03:30:03;5.60;;;4.40;;
30173;SDS011;16985;50.814;8.530;2023-07-30T03:32:29;5.07;;;4.47;;
30173;SDS011;16985;50.814;8.530;2023-07-30T03:34:55;9.63;;;5.72;;
30173;SDS011;16985;50.814;8.530;2023-07-30T03:37:21;7.43;;;5.10;;
30173;SDS011;16985;50.814;8.530;2023-07-30T03:39:47;9.65;;;5.35;;
30173;SDS011;16985;50.814;8.530;2023-07-30T03:42:12;6.55;;;4.82;;
30173;SDS011;16985;50.814;8.530;2023-07-30T03:44:38;10.65;;;6.32;;
30173;SDS011;16985;50.814;8.530;2023-07-30T03:47:04;7.35;;;5.35;;
30173;SDS011;16985;50.814;8.530;2023-07-30T03:49:30;8.23;;;5.95;;
30173;SDS011;16985;50.814;8.530;2023-07-30T03:51:56;7.30;;;5.50;;
30173;SDS011;16985;50.814;8.530;2023-07-30T03:54:22;10.50;;;5.30;;
30173;SDS011;16985;50.814;8.530;2023-07-30T03:56:47;8.85;;;5.43;;
30173;SDS011;16985;50.814;8.530;2023-07-30T03:59:13;7.93;;;5.00;;
30173;SDS011;16985;50.814;8.530;2023-07-30T04:01:39;6.97;;;4.55;;
30173;SDS011;16985;50.814;8.530;2023-07-30T04:04:05;8.23;;;5.15;;
30173;SDS011;16985;50.814;8.530;2023-07-30T04:06:30;9.75;;;5.07;;
30173;SDS011;16985;50.814;8.530;2023-07-30T04:08:56;8.45;;;4.72;;
30173;SDS011;16985;50.814;8.530;2023-07-30T04:11:22;10.32;;;4.95;;
30173;SDS011;16985;50.814;8.530;2023-07-30T04:13:48;7.45;;;3.80;;
30173;SDS011;16985;50.814;8.530;2023-07-30T04:16:14;9.63;;;3.90;;
30173;SDS011;16985;50.814;8.530;2023-07-30T04:18:39;8.30;;;3.65;;
30173;SDS011;16985;50.814;8.530;2023-07-30T04:21:05;8.35;;;3.72;;
30173;SDS011;16985;50.814;8.530;2023-07-30T04:23:31;5.78;;;3.22;;
30173;SDS011;16985;50.814;8.530;2023-07-30T04:25:57;10.30;;;3.47;;
30173;SDS011;16985;50.814;8.530;2023-07-30T04:28:23;5.95;;;3.38;;
30173;SDS011;16985;50.814;8.530;2023-07-30T04:30:49;9.18;;;3.22;;
30173;SDS011;16985;50.814;8.530;2023-07-30T04:33:15;6.18;;;3.00;;
30173;SDS011;16985;50.814;8.530;2023-07-30T04:35:41;5.53;;;2.95;;
30173;SDS011;16985;50.814;8.530;2023-07-30T04:38:07;5.85;;;3.70;;
30173;SDS011;16985;50.814;8.530;2023-07-30T04:40:33;9.38;;;2.92;;
30173;SDS011;16985;50.814;8.530;2023-07-30T04:42:59;7.00;;;3.17;;
30173;SDS011;16985;50.814;8.530;2023-07-30T04:45:26;7.75;;;3.10;;
30173;SDS011;16985;50.814;8.530;2023-07-30T04:47:52;5.55;;;2.95;;
30173;SDS011;16985;50.814;8.530;2023-07-30T04:50:18;4.40;;;3.03;;
30173;SDS011;16985;50.814;8.530;2023-07-30T04:52:44;5.50;;;2.33;;
30173;SDS011;16985;50.814;8.530;2023-07-30T04:55:10;8.18;;;3.28;;
30173;SDS011;16985;50.814;8.530;2023-07-30T04:57:36;8.48;;;2.90;;
30173;SDS011;16985;50.814;8.530;2023-07-30T05:00:02;4.50;;;2.72;;
30173;SDS011;16985;50.814;8.530;2023-07-30T05:02:29;4.65;;;2.83;;
30173;SDS011;16985;50.814;8.530;2023-07-30T05:04:55;5.85;;;2.13;;
30173;SDS011;16985;50.814;8.530;2023-07-30T05:07:20;7.13;;;3.20;;
30173;SDS011;16985;50.814;8.530;2023-07-30T05:09:46;8.35;;;2.83;;
30173;SDS011;16985;50.814;8.530;2023-07-30T05:12:12;11.13;;;2.85;;
30173;SDS011;16985;50.814;8.530;2023-07-30T05:14:38;7.40;;;2.80;;
30173;SDS011;16985;50.814;8.530;2023-07-30T05:17:04;6.38;;;3.10;;
30173;SDS011;16985;50.814;8.530;2023-07-30T05:19:30;4.97;;;2.20;;
30173;SDS011;16985;50.814;8.530;2023-07-30T05:21:57;5.68;;;2.42;;
30173;SDS011;16985;50.814;8.530;2023-07-30T05:24:24;5.87;;;2.83;;
30173;SDS011;16985;50.814;8.530;2023-07-30T05:26:50;5.68;;;2.67;;
30173;SDS011;16985;50.814;8.530;2023-07-30T05:29:16;6.47;;;2.42;;
30173;SDS011;16985;50.814;8.530;2023-07-30T05:31:42;3.60;;;2.38;;
30173;SDS011;16985;50.814;8.530;2023-07-30T05:34:07;5.15;;;2.60;;
30173;SDS011;16985;50.814;8.530;2023-07-30T05:36:33;4.45;;;2.38;;
30173;SDS011;16985;50.814;8.530;2023-07-30T05:38:59;6.20;;;2.50;;
30173;SDS011;16985;50.814;8.530;2023-07-30T05:41:25;4.97;;;2.42;;
30173;SDS011;16985;50.814;8.530;2023-07-30T05:43:50;6.45;;;2.33;;
30173;SDS011;16985;50.814;8.530;2023-07-30T05:46:16;8.40;;;2.60;;
30173;SDS011;16985;50.814;8.530;2023-07-30T05:48:42;5.40;;;2.30;;
30173;SDS011;16985;50.814;8.530;2023-07-30T05:51:08;8.52;;;3.00;;
30173;SDS011;16985;50.814;8.530;2023-07-30T05:53:34;7.50;;;2.90;;
30173;SDS011;16985;50.814;8.530;2023-07-30T05:55:59;6.85;;;2.17;;
30173;SDS011;16985;50.814;8.530;2023-07-30T05:58:25;7.72;;;2.60;;
30173;SDS011;16985;50.814;8.530;2023-07-30T06:00:51;3.63;;;2.30;;
30173;SDS011;16985;50.814;8.530;2023-07-30T06:03:17;3.83;;;2.28;;
30173;SDS011;16985;50.814;8.530;2023-07-30T06:05:43;5.45;;;2.70;;
30173;SDS011;16985;50.814;8.530;2023-07-30T06:08:09;8.70;;;2.55;;
30173;SDS011;16985;50.814;8.530;2023-07-30T06:10:35;9.80;;;2.47;;
30173;SDS011;16985;50.814;8.530;2023-07-30T06:13:02;8.07;;;2.85;;
30173;SDS011;16985;50.814;8.530;2023-07-30T06:15:29;7.47;;;3.00;;
30173;SDS011;16985;50.814;8.530;2023-07-30T06:17:56;8.45;;;2.20;;
30173;SDS011;16985;50.814;8.530;2023-07-30T06:20:22;4.32;;;2.72;;
30173;SDS011;16985;50.814;8.530;2023-07-30T06:22:47;5.28;;;2.47;;
30173;SDS011;16985;50.814;8.530;2023-07-30T06:25:13;6.07;;;2.30;;
30173;SDS011;16985;50.814;8.530;2023-07-30T06:27:39;4.97;;;2.47;;
30173;SDS011;16985;50.814;8.530;2023-07-30T06:30:05;8.73;;;3.47;;
30173;SDS011;16985;50.814;8.530;2023-07-30T06:32:31;6.95;;;2.40;;
30173;SDS011;16985;50.814;8.530;2023-07-30T06:34:57;5.28;;;2.55;;
30173;SDS011;16985;50.814;8.530;2023-07-30T06:37:23;6.63;;;2.85;;
30173;SDS011;16985;50.814;8.530;2023-07-30T06:39:49;4.85;;;2.50;;
30173;SDS011;16985;50.814;8.530;2023-07-30T06:42:14;5.57;;;2.20;;
30173;SDS011;16985;50.814;8.530;2023-07-30T06:44:40;6.63;;;2.65;;
30173;SDS011;16985;50.814;8.530;2023-07-30T06:47:06;7.18;;;3.38;;
30173;SDS011;16985;50.814;8.530;2023-07-30T06:49:32;3.05;;;1.73;;
30173;SDS011;16985;50.814;8.530;2023-07-30T06:51:59;15.88;;;2.85;;
30173;SDS011;16985;50.814;8.530;2023-07-30T06:54:25;7.97;;;2.55;;
30173;SDS011;16985;50.814;8.530;2023-07-30T06:56:53;8.63;;;2.78;;
30173;SDS011;16985;50.814;8.530;2023-07-30T06:59:19;6.85;;;2.45;;
30173;SDS011;16985;50.814;8.530;2023-07-30T07:01:44;6.53;;;3.03;;
30173;SDS011;16985;50.814;8.530;2023-07-30T07:04:10;8.70;;;2.90;;
30173;SDS011;16985;50.814;8.530;2023-07-30T07:06:36;9.85;;;2.70;;
30173;SDS011;16985;50.814;8.530;2023-07-30T07:09:02;9.98;;;2.70;;
30173;SDS011;16985;50.814;8.530;2023-07-30T07:11:28;9.10;;;2.90;;
30173;SDS011;16985;50.814;8.530;2023-07-30T07:13:54;6.75;;;3.15;;
30173;SDS011;16985;50.814;8.530;2023-07-30T07:16:20;6.43;;;2.45;;
30173;SDS011;16985;50.814;8.530;2023-07-30T07:18:46;6.40;;;2.72;;
30173;SDS011;16985;50.814;8.530;2023-07-30T07:21:13;6.53;;;2.22;;
30173;SDS011;16985;50.814;8.530;2023-07-30T07:23:40;6.78;;;2.33;;
30173;SDS011;16985;50.814;8.530;2023-07-30T07:26:06;8.02;;;2.60;;
30173;SDS011;16985;50.814;8.530;2023-07-30T07:28:31;5.00;;;2.80;;
30173;SDS011;16985;50.814;8.530;2023-07-30T07:30:57;10.95;;;3.03;;
30173;SDS011;16985;50.814;8.530;2023-07-30T07:33:23;17.40;;;4.65;;
30173;SDS011;16985;50.814;8.530;2023-07-30T07:35:49;7.75;;;2.13;;
30173;SDS011;16985;50.814;8.530;2023-07-30T07:38:15;4.95;;;2.40;;
30173;SDS011;16985;50.814;8.530;2023-07-30T07:40:41;3.20;;;2.35;;
30173;SDS011;16985;50.814;8.530;2023-07-30T07:43:07;8.63;;;2.72;;
30173;SDS011;16985;50.814;8.530;2023-07-30T07:45:33;3.40;;;2.10;;
30173;SDS011;16985;50.814;8.530;2023-07-30T07:47:59;9.05;;;2.85;;
30173;SDS011;16985;50.814;8.530;2023-07-30T07:50:26;11.80;;;3.00;;
30173;SDS011;16985;50.814;8.530;2023-07-30T07:52:51;7.43;;;2.78;;
30173;SDS011;16985;50.814;8.530;2023-07-30T07:55:17;7.57;;;2.65;;
30173;SDS011;16985;50.814;8.530;2023-07-30T07:57:43;5.85;;;3.15;;
30173;SDS011;16985;50.814;8.530;2023-07-30T08:00:09;5.68;;;2.30;;
30173;SDS011;16985;50.814;8.530;2023-07-30T08:02:40;11.85;;;2.88;;
30173;SDS011;16985;50.814;8.530;2023-07-30T08:05:06;6.10;;;2.72;;
30173;SDS011;16985;50.814;8.530;2023-07-30T08:07:32;8.45;;;2.72;;
30173;SDS011;16985;50.814;8.530;2023-07-30T08:09:58;7.03;;;2.85;;
30173;SDS011;16985;50.814;8.530;2023-07-30T08:12:24;4.35;;;2.08;;
30173;SDS011;16985;50.814;8.530;2023-07-30T08:14:50;24.17;;;3.38;;
30173;SDS011;16985;50.814;8.530;2023-07-30T08:17:16;6.13;;;2.50;;
30173;SDS011;16985;50.814;8.530;2023-07-30T08:19:43;7.07;;;2.38;;
30173;SDS011;16985;50.814;8.530;2023-07-30T08:22:09;5.63;;;2.85;;
30173;SDS011;16985;50.814;8.530;2023-07-30T08:24:35;6.82;;;2.70;;
30173;SDS011;16985;50.814;8.530;2023-07-30T08:27:00;5.57;;;2.20;;
30173;SDS011;16985;50.814;8.530;2023-07-30T08:29:27;7.97;;;1.98;;
30173;SDS011;16985;50.814;8.530;2023-07-30T08:31:52;5.45;;;2.30;;
30173;SDS011;16985;50.814;8.530;2023-07-30T08:34:18;8.95;;;2.03;;
30173;SDS011;16985;50.814;8.530;2023-07-30T08:36:46;4.80;;;2.00;;
30173;SDS011;16985;50.814;8.530;2023-07-30T08:39:12;6.82;;;1.95;;
30173;SDS011;16985;50.814;8.530;2023-07-30T08:41:38;4.15;;;2.05;;
30173;SDS011;16985;50.814;8.530;2023-07-30T08:44:04;4.93;;;1.65;;
30173;SDS011;16985;50.814;8.530;2023-07-30T08:46:30;6.35;;;1.65;;
30173;SDS011;16985;50.814;8.530;2023-07-30T08:48:56;8.00;;;1.80;;
30173;SDS011;16985;50.814;8.530;2023-07-30T08:51:22;3.22;;;1.25;;
30173;SDS011;16985;50.814;8.530;2023-07-30T08:53:50;4.53;;;1.60;;
30173;SDS011;16985;50.814;8.530;2023-07-30T08:56:17;3.05;;;1.60;;
30173;SDS011;16985;50.814;8.530;2023-07-30T08:58:44;3.65;;;1.60;;
30173;SDS011;16985;50.814;8.530;2023-07-30T09:01:11;5.25;;;2.10;;
30173;SDS011;16985;50.814;8.530;2023-07-30T09:03:39;6.38;;;1.58;;
30173;SDS011;16985;50.814;8.530;2023-07-30T09:06:07;6.65;;;1.73;;
30173;SDS011;16985;50.814;8.530;2023-07-30T09:08:33;5.18;;;1.90;;
30173;SDS011;16985;50.814;8.530;2023-07-30T09:11:08;6.90;;;1.80;;
30173;SDS011;16985;50.814;8.530;2023-07-30T09:13:38;9.68;;;1.98;;
30173;SDS011;16985;50.814;8.530;2023-07-30T09:16:12;3.65;;;1.63;;
30173;SDS011;16985;50.814;8.530;2023-07-30T09:18:40;5.00;;;2.00;;
30173;SDS011;16985;50.814;8.530;2023-07-30T09:21:10;4.32;;;1.70;;
30173;SDS011;16985;50.814;8.530;2023-07-30T09:23:41;5.23;;;1.57;;
30173;SDS011;16985;50.814;8.530;2023-07-30T09:26:08;9.88;;;2.05;;
30173;SDS011;16985;50.814;8.530;2023-07-30T09:28:35;6.55;;;1.80;;
30173;SDS011;16985;50.814;8.530;2023-07-30T09:31:05;7.97;;;2.20;;
30173;SDS011;16985;50.814;8.530;2023-07-30T09:33:33;4.50;;;1.33;;
30173;SDS011;16985;50.814;8.530;2023-07-30T09:36:03;5.65;;;2.55;;
30173;SDS011;16985;50.814;8.530;2023-07-30T09:38:29;4.90;;;1.67;;
30173;SDS011;16985;50.814;8.530;2023-07-30T09:41:01;3.63;;;1.48;;
30173;SDS011;16985;50.814;8.530;2023-07-30T09:43:28;4.40;;;1.48;;
30173;SDS011;16985;50.814;8.530;2023-07-30T09:46:04;2.58;;;1.52;;
30173;SDS011;16985;50.814;8.530;2023-07-30T09:48:32;2.95;;;1.20;;
30173;SDS011;16985;50.814;8.530;2023-07-30T09:51:00;2.95;;;1.20;;
30173;SDS011;16985;50.814;8.530;2023-07-30T09:53:30;3.25;;;1.17;;
30173;SDS011;16985;50.814;8.530;2023-07-30T09:56:04;3.65;;;1.10;;
30173;SDS011;16985;50.814;8.530;2023-07-30T09:58:32;2.60;;;1.25;;
30173;SDS011;16985;50.814;8.530;2023-07-30T10:01:00;1.85;;;0.90;;
30173;SDS011;16985;50.814;8.530;2023-07-30T10:03:29;3.40;;;1.60;;
30173;SDS011;16985;50.814;8.530;2023-07-30T10:06:02;1.67;;;1.05;;
30173;SDS011;16985;50.814;8.530;2023-07-30T10:08:29;2.90;;;1.10;;
30173;SDS011;16985;50.814;8.530;2023-07-30T10:10:59;2.70;;;0.85;;
30173;SDS011;16985;50.814;8.530;2023-07-30T10:13:28;2.35;;;1.05;;
30173;SDS011;16985;50.814;8.530;2023-07-30T10:15:55;2.90;;;1.85;;
30173;SDS011;16985;50.814;8.530;2023-07-30T10:18:25;5.32;;;1.15;;
30173;SDS011;16985;50.814;8.530;2023-07-30T10:21:21;1.60;;;0.88;;
30173;SDS011;16985;50.814;8.530;2023-07-30T10:23:50;3.00;;;1.30;;
30173;SDS011;16985;50.814;8.530;2023-07-30T10:26:29;2.92;;;1.30;;
30173;SDS011;16985;50.814;8.530;2023-07-30T10:29:13;2.67;;;1.10;;
30173;SDS011;16985;50.814;8.530;2023-07-30T10:31:48;3.92;;;1.40;;
30173;SDS011;16985;50.814;8.530;2023-07-30T10:34:18;3.20;;;1.80;;
30173;SDS011;16985;50.814;8.530;2023-07-30T10:36:48;4.78;;;1.58;;
30173;SDS011;16985;50.814;8.530;2023-07-30T10:39:25;3.47;;;1.45;;
30173;SDS011;16985;50.814;8.530;2023-07-30T10:41:56;10.38;;;1.77;;
30173;SDS011;16985;50.814;8.530;2023-07-30T10:46:50;3.13;;;1.77;;
30173;SDS011;16985;50.814;8.530;2023-07-30T10:49:22;5.43;;;1.85;;
30173;SDS011;16985;50.814;8.530;2023-07-30T10:51:50;4.45;;;1.20;;
30173;SDS011;16985;50.814;8.530;2023-07-30T10:54:22;5.45;;;1.70;;
30173;SDS011;16985;50.814;8.530;2023-07-30T10:56:49;6.93;;;1.65;;
30173;SDS011;16985;50.814;8.530;2023-07-30T10:59:15;5.18;;;1.70;;
30173;SDS011;16985;50.814;8.530;2023-07-30T11:01:43;10.65;;;1.65;;
30173;SDS011;16985;50.814;8.530;2023-07-30T11:04:11;7.57;;;2.38;;
30173;SDS011;16985;50.814;8.530;2023-07-30T11:06:45;4.25;;;1.75;;
30173;SDS011;16985;50.814;8.530;2023-07-30T11:09:20;3.95;;;1.60;;
30173;SDS011;16985;50.814;8.530;2023-07-30T11:11:48;4.60;;;1.85;;
30173;SDS011;16985;50.814;8.530;2023-07-30T11:14:16;3.63;;;1.52;;
30173;SDS011;16985;50.814;8.530;2023-07-30T11:16:54;5.70;;;1.80;;
30173;SDS011;16985;50.814;8.530;2023-07-30T11:19:26;5.35;;;1.80;;
30173;SDS011;16985;50.814;8.530;2023-07-30T11:21:54;12.68;;;1.92;;
30173;SDS011;16985;50.814;8.530;2023-07-30T11:24:37;2.78;;;1.40;;
30173;SDS011;16985;50.814;8.530;2023-07-30T11:27:03;6.22;;;1.90;;
30173;SDS011;16985;50.814;8.530;2023-07-30T11:29:29;6.03;;;1.52;;
30173;SDS011;16985;50.814;8.530;2023-07-30T11:31:58;7.22;;;1.63;;
30173;SDS011;16985;50.814;8.530;2023-07-30T11:34:25;5.97;;;1.75;;
30173;SDS011;16985;50.814;8.530;2023-07-30T11:36:53;6.93;;;1.73;;
30173;SDS011;16985;50.814;8.530;2023-07-30T11:39:20;7.07;;;2.33;;
30173;SDS011;16985;50.814;8.530;2023-07-30T11:41:46;2.95;;;1.90;;
30173;SDS011;16985;50.814;8.530;2023-07-30T11:44:29;6.53;;;1.90;;
30173;SDS011;16985;50.814;8.530;2023-07-30T11:47:00;5.60;;;2.00;;
30173;SDS011;16985;50.814;8.530;2023-07-30T11:49:26;5.90;;;2.00;;
30173;SDS011;16985;50.814;8.530;2023-07-30T11:52:03;3.83;;;1.40;;
30173;SDS011;16985;50.814;8.530;2023-07-30T11:54:33;7.82;;;2.28;;
30173;SDS011;16985;50.814;8.530;2023-07-30T11:57:00;5.20;;;1.65;;
30173;SDS011;16985;50.814;8.530;2023-07-30T11:59:26;9.18;;;2.13;;
30173;SDS011;16985;50.814;8.530;2023-07-30T12:01:52;8.43;;;2.00;;
30173;SDS011;16985;50.814;8.530;2023-07-30T12:04:18;8.00;;;1.77;;
30173;SDS011;16985;50.814;8.530;2023-07-30T12:06:46;7.32;;;2.83;;
30173;SDS011;16985;50.814;8.530;2023-07-30T12:09:18;6.15;;;2.47;;
30173;SDS011;16985;50.814;8.530;2023-07-30T12:11:51;5.63;;;1.73;;
30173;SDS011;16985;50.814;8.530;2023-07-30T12:14:18;5.53;;;1.40;;
30173;SDS011;16985;50.814;8.530;2023-07-30T12:16:46;5.85;;;2.20;;
30173;SDS011;16985;50.814;8.530;2023-07-30T12:19:12;8.30;;;1.92;;
30173;SDS011;16985;50.814;8.530;2023-07-30T12:21:38;8.25;;;2.03;;
30173;SDS011;16985;50.814;8.530;2023-07-30T12:24:04;5.95;;;1.30;;
30173;SDS011;16985;50.814;8.530;2023-07-30T12:26:30;4.00;;;1.50;;
30173;SDS011;16985;50.814;8.530;2023-07-30T12:28:56;5.75;;;1.80;;
30173;SDS011;16985;50.814;8.530;2023-07-30T12:31:22;2.45;;;1.52;;
30173;SDS011;16985;50.814;8.530;2023-07-30T12:33:48;6.78;;;1.60;;
30173;SDS011;16985;50.814;8.530;2023-07-30T12:36:14;4.88;;;1.95;;
30173;SDS011;16985;50.814;8.530;2023-07-30T12:38:39;7.20;;;2.03;;
30173;SDS011;16985;50.814;8.530;2023-07-30T12:41:05;5.82;;;1.70;;
30173;SDS011;16985;50.814;8.530;2023-07-30T12:43:34;5.50;;;2.17;;
30173;SDS011;16985;50.814;8.530;2023-07-30T12:46:00;8.88;;;1.60;;
30173;SDS011;16985;50.814;8.530;2023-07-30T12:48:26;8.85;;;2.38;;
30173;SDS011;16985;50.814;8.530;2023-07-30T12:50:51;6.72;;;1.95;;
30173;SDS011;16985;50.814;8.530;2023-07-30T12:53:17;10.52;;;2.45;;
30173;SDS011;16985;50.814;8.530;2023-07-30T12:55:43;6.60;;;1.70;;
30173;SDS011;16985;50.814;8.530;2023-07-30T12:58:09;7.05;;;1.80;;
30173;SDS011;16985;50.814;8.530;2023-07-30T13:00:35;4.40;;;1.58;;
30173;SDS011;16985;50.814;8.530;2023-07-30T13:03:04;7.40;;;1.70;;
30173;SDS011;16985;50.814;8.530;2023-07-30T13:05:29;3.97;;;1.20;;
30173;SDS011;16985;50.814;8.530;2023-07-30T13:07:55;3.90;;;1.33;;
30173;SDS011;16985;50.814;8.530;2023-07-30T13:10:21;4.78;;;1.70;;
30173;SDS011;16985;50.814;8.530;2023-07-30T13:12:47;3.88;;;1.50;;
30173;SDS011;16985;50.814;8.530;2023-07-30T13:15:13;7.03;;;1.70;;
30173;SDS011;16985;50.814;8.530;2023-07-30T13:17:39;3.45;;;1.40;;
30173;SDS011;16985;50.814;8.530;2023-07-30T13:20:05;5.53;;;1.50;;
30173;SDS011;16985;50.814;8.530;2023-07-30T13:22:32;5.00;;;1.63;;
30173;SDS011;16985;50.814;8.530;2023-07-30T13:25:00;2.47;;;1.08;;
30173;SDS011;16985;50.814;8.530;2023-07-30T13:27:26;5.80;;;1.60;;
30173;SDS011;16985;50.814;8.530;2023-07-30T13:29:52;3.92;;;1.40;;
30173;SDS011;16985;50.814;8.530;2023-07-30T13:32:17;7.07;;;1.45;;
30173;SDS011;16985;50.814;8.530;2023-07-30T13:34:46;4.50;;;1.45;;
30173;SDS011;16985;50.814;8.530;2023-07-30T13:37:11;8.05;;;2.08;;
30173;SDS011;16985;50.814;8.530;2023-07-30T13:39:40;3.58;;;1.23;;
30173;SDS011;16985;50.814;8.530;2023-07-30T13:42:06;7.10;;;1.33;;
30173;SDS011;16985;50.814;8.530;2023-07-30T13:44:32;3.40;;;1.38;;
30173;SDS011;16985;50.814;8.530;2023-07-30T13:46:58;6.00;;;1.15;;
30173;SDS011;16985;50.814;8.530;2023-07-30T13:49:23;3.97;;;1.20;;
30173;SDS011;16985;50.814;8.530;2023-07-30T13:51:49;5.30;;;1.48;;
30173;SDS011;16985;50.814;8.530;2023-07-30T13:54:15;7.75;;;2.35;;
30173;SDS011;16985;50.814;8.530;2023-07-30T13:56:41;7.18;;;1.73;;
30173;SDS011;16985;50.814;8.530;2023-07-30T13:59:07;7.40;;;1.80;;
30173;SDS011;16985;50.814;8.530;2023-07-30T14:01:32;6.07;;;1.50;;
30173;SDS011;16985;50.814;8.530;2023-07-30T14:03:58;4.57;;;1.30;;
30173;SDS011;16985;50.814;8.530;2023-07-30T14:06:24;4.50;;;1.30;;
30173;SDS011;16985;50.814;8.530;2023-07-30T14:08:50;7.35;;;1.60;;
30173;SDS011;16985;50.814;8.530;2023-07-30T14:11:16;3.05;;;1.17;;
30173;SDS011;16985;50.814;8.530;2023-07-30T14:13:41;4.70;;;1.70;;
30173;SDS011;16985;50.814;8.530;2023-07-30T14:16:07;9.80;;;1.63;;
30173;SDS011;16985;50.814;8.530;2023-07-30T14:18:33;5.72;;;2.10;;
30173;SDS011;16985;50.814;8.530;2023-07-30T14:20:59;4.55;;;1.45;;
30173;SDS011;16985;50.814;8.530;2023-07-30T14:23:25;5.03;;;1.70;;
30173;SDS011;16985;50.814;8.530;2023-07-30T14:25:51;6.85;;;1.92;;
30173;SDS011;16985;50.814;8.530;2023-07-30T14:28:17;5.32;;;1.40;;
30173;SDS011;16985;50.814;8.530;2023-07-30T14:30:42;5.30;;;1.52;;
30173;SDS011;16985;50.814;8.530;2023-07-30T14:33:12;3.28;;;1.00;;
30173;SDS011;16985;50.814;8.530;2023-07-30T14:35:39;6.18;;;1.42;;
30173;SDS011;16985;50.814;8.530;2023-07-30T14:38:05;9.35;;;1.45;;
30173;SDS011;16985;50.814;8.530;2023-07-30T14:40:32;7.70;;;1.83;;
30173;SDS011;16985;50.814;8.530;2023-07-30T14:42:58;6.20;;;2.47;;
30173;SDS011;16985;50.814;8.530;2023-07-30T14:45:24;4.78;;;1.42;;
30173;SDS011;16985;50.814;8.530;2023-07-30T14:47:50;6.30;;;2.33;;
30173;SDS011;16985;50.814;8.530;2023-07-30T14:50:16;6.47;;;1.38;;